Time;durP1;ratioP1;P1;durP2;ratioP2;P2;SDS_P1;SDS_P2;PMS_P1;PMS_P2;Temp;Humidity;BMP_temperature;BMP_pressure;BME280_temperature;BME280_humidity;BME280_pressure;Samples;Min_cycle;Max_cycle;Signal;HPM_P1;HPM_P2
2023/10/29 00:01:28;;;;;;;1.42;1.00;;;;;13.90;96902.00;;;;5033630;28;20037;-62
2023/10/29 00:03:55;;;;;;;3.67;0.88;;;;;13.90;96891.00;;;;5033286;28;20121;-62
2023/10/29 00:06:23;;;;;;;4.07;1.27;;;;;13.90;96889.00;;;;5016236;28;20049;-62
2023/10/29 00:08:49;;;;;;;1.65;1.20;;;;;13.90;96893.00;;;;5033607;28;20049;-62
2023/10/29 00:11:16;;;;;;;3.28;1.67;;;;;13.90;96883.00;;;;5033409;28;20041;-65
2023/10/29 00:13:43;;;;;;;2.85;1.40;;;;;13.90;96890.00;;;;5033229;28;20060;-65
2023/10/29 00:16:11;;;;;;;4.40;1.30;;;;;13.90;96885.00;;;;5033806;28;20069;-62
2023/10/29 00:18:38;;;;;;;2.75;1.45;;;;;14.00;96897.00;;;;5033259;28;20490;-63
2023/10/29 00:21:05;;;;;;;3.65;1.45;;;;;14.00;96892.00;;;;5032544;28;20157;-65
2023/10/29 00:23:32;;;;;;;2.85;1.23;;;;;14.00;96895.00;;;;5032158;28;20116;-65
2023/10/29 00:25:59;;;;;;;2.80;1.30;;;;;14.00;96893.00;;;;5034006;28;20507;-63
2023/10/29 00:28:26;;;;;;;1.58;1.33;;;;;14.00;96889.00;;;;5033472;28;20046;-64
2023/10/29 00:30:55;;;;;;;2.75;1.45;;;;;14.00;96894.00;;;;5033541;28;20045;-63
2023/10/29 00:33:22;;;;;;;3.47;1.45;;;;;14.00;96887.00;;;;5031847;28;20140;-64
2023/10/29 00:35:50;;;;;;;2.85;1.20;;;;;14.00;96889.00;;;;5031595;28;20053;-66
2023/10/29 00:38:17;;;;;;;2.17;1.40;;;;;14.00;96895.00;;;;5032972;28;20064;-63
2023/10/29 00:40:43;;;;;;;2.25;1.17;;;;;14.00;96902.00;;;;5033066;28;20088;-62
2023/10/29 00:43:16;;;;;;;3.35;1.55;;;;;14.00;96904.00;;;;5032834;28;20046;-65
2023/10/29 00:45:44;;;;;;;3.40;0.98;;;;;14.00;96912.00;;;;5031205;28;20045;-62
2023/10/29 00:48:11;;;;;;;5.22;1.48;;;;;14.00;96909.00;;;;5031773;28;20045;-62
2023/10/29 00:50:39;;;;;;;3.03;1.17;;;;;14.00;96925.00;;;;5032950;28;20422;-65
2023/10/29 00:53:06;;;;;;;2.13;1.45;;;;;14.10;96916.00;;;;5031656;28;20041;-65
2023/10/29 00:55:35;;;;;;;3.03;1.05;;;;;14.00;96891.00;;;;5032280;28;20049;-62
2023/10/29 00:58:02;;;;;;;4.45;1.48;;;;;14.10;96870.00;;;;5032641;28;20080;-62
2023/10/29 01:00:29;;;;;;;2.92;1.42;;;;;14.10;96883.00;;;;5032647;28;20046;-63
2023/10/29 01:02:55;;;;;;;3.25;1.02;;;;;14.10;96881.00;;;;5031329;28;20053;-62
2023/10/29 01:05:22;;;;;;;4.25;1.33;;;;;14.10;96892.00;;;;5032570;28;20041;-65
2023/10/29 01:07:50;;;;;;;2.83;1.38;;;;;14.10;96885.00;;;;5031459;28;20049;-65
2023/10/29 01:10:17;;;;;;;1.83;1.30;;;;;14.10;96870.00;;;;5031513;28;20145;-64
2023/10/29 01:12:45;;;;;;;6.90;1.20;;;;;14.10;96870.00;;;;5032557;28;20069;-65
2023/10/29 01:15:11;;;;;;;2.47;1.50;;;;;14.10;96866.00;;;;5030387;28;20103;-62
2023/10/29 01:17:38;;;;;;;2.70;1.20;;;;;14.10;96852.00;;;;5032149;28;20052;-65
2023/10/29 01:20:05;;;;;;;4.07;1.35;;;;;14.10;96848.00;;;;5032213;28;20046;-64
2023/10/29 01:22:32;;;;;;;3.45;1.52;;;;;14.00;96846.00;;;;5030966;28;20049;-64
2023/10/29 01:24:59;;;;;;;2.05;1.30;;;;;14.00;96850.00;;;;5030541;28;20144;-64
2023/10/29 01:27:26;;;;;;;6.65;1.42;;;;;14.00;96839.00;;;;5032297;28;20045;-65
2023/10/29 01:29:53;;;;;;;1.90;1.30;;;;;14.00;96824.00;;;;5031154;28;20055;-63
2023/10/29 01:32:20;;;;;;;6.80;1.75;;;;;14.00;96815.00;;;;5030768;28;20041;-65
2023/10/29 01:34:46;;;;;;;3.13;1.23;;;;;14.00;96813.00;;;;5031969;28;20065;-65
2023/10/29 01:37:13;;;;;;;4.03;1.55;;;;;14.00;96822.00;;;;5032756;28;20115;-65
2023/10/29 01:39:40;;;;;;;1.55;1.27;;;;;14.00;96814.00;;;;5031923;28;20057;-65
2023/10/29 01:42:06;;;;;;;4.47;1.55;;;;;14.10;96811.00;;;;5032230;28;20120;-65
2023/10/29 01:44:33;;;;;;;5.50;1.27;;;;;14.10;96782.00;;;;5031557;28;20055;-65
2023/10/29 01:46:59;;;;;;;2.60;1.48;;;;;14.10;96786.00;;;;5030812;28;20045;-65
2023/10/29 01:49:26;;;;;;;1.50;0.98;;;;;14.10;96795.00;;;;5030684;28;20499;-65
2023/10/29 01:51:53;;;;;;;3.75;1.30;;;;;14.10;96801.00;;;;5032111;28;20037;-65
2023/10/29 01:54:22;;;;;;;2.10;1.30;;;;;14.10;96804.00;;;;5013788;28;20410;-65
2023/10/29 01:56:48;;;;;;;2.92;1.50;;;;;14.10;96817.00;;;;5030729;28;20046;-65
2023/10/29 01:59:15;;;;;;;5.13;1.27;;;;;14.00;96829.00;;;;5030642;28;20266;-64
2023/10/29 02:01:42;;;;;;;1.75;1.10;;;;;14.00;96816.00;;;;5030564;28;20053;-65
2023/10/29 02:04:10;;;;;;;3.33;1.00;;;;;14.00;96826.00;;;;5030136;28;20156;-65
2023/10/29 02:06:40;;;;;;;2.65;1.15;;;;;14.00;96827.00;;;;5031851;28;20061;-65
2023/10/29 02:09:08;;;;;;;2.00;1.20;;;;;14.10;96841.00;;;;5031819;28;20045;-66
2023/10/29 02:11:39;;;;;;;1.92;1.13;;;;;14.10;96845.00;;;;5030667;28;20144;-66
2023/10/29 02:14:06;;;;;;;3.05;1.23;;;;;14.10;96843.00;;;;5031213;28;20045;-66
2023/10/29 02:16:32;;;;;;;3.60;1.10;;;;;14.20;96842.00;;;;5030584;28;20141;-65
2023/10/29 02:18:59;;;;;;;1.05;0.90;;;;;14.20;96845.00;;;;5031545;28;20108;-65
2023/10/29 02:21:27;;;;;;;2.75;1.30;;;;;14.20;96835.00;;;;5031792;28;20063;-63
2023/10/29 02:23:54;;;;;;;2.30;1.15;;;;;14.20;96834.00;;;;5030988;28;20037;-64
2023/10/29 02:26:23;;;;;;;1.33;0.90;;;;;14.20;96832.00;;;;5030531;28;20049;-64
2023/10/29 02:28:49;;;;;;;1.60;1.02;;;;;14.20;96831.00;;;;5031594;28;20080;-64
2023/10/29 02:31:18;;;;;;;1.58;1.08;;;;;14.20;96836.00;;;;5032079;28;20077;-65
2023/10/29 02:33:46;;;;;;;2.38;1.42;;;;;14.20;96840.00;;;;5031302;28;20057;-65
2023/10/29 02:36:13;;;;;;;3.80;1.30;;;;;14.20;96827.00;;;;5031598;28;20041;-65
2023/10/29 02:38:40;;;;;;;2.38;0.90;;;;;14.30;96823.00;;;;5031503;28;20041;-65
2023/10/29 02:41:07;;;;;;;1.50;1.13;;;;;14.30;96826.00;;;;5013834;28;20046;-65
2023/10/29 02:43:34;;;;;;;3.72;1.30;;;;;14.30;96824.00;;;;5029584;28;20128;-65
2023/10/29 02:46:00;;;;;;;4.50;1.33;;;;;14.40;96821.00;;;;5032119;28;20490;-66
2023/10/29 02:48:27;;;;;;;3.78;1.10;;;;;14.40;96826.00;;;;5035211;28;20041;-66
2023/10/29 02:50:55;;;;;;;1.80;0.88;;;;;14.40;96829.00;;;;5033842;28;20053;-62
2023/10/29 02:53:22;;;;;;;2.22;0.90;;;;;14.40;96828.00;;;;5035056;28;20037;-62
2023/10/29 02:55:49;;;;;;;3.85;1.20;;;;;14.40;96834.00;;;;5034545;28;20486;-61
2023/10/29 02:58:15;;;;;;;2.05;1.33;;;;;14.40;96844.00;;;;5033769;28;20045;-61
2023/10/29 03:00:42;;;;;;;2.38;0.95;;;;;14.40;96845.00;;;;5033856;28;20077;-63
2023/10/29 03:03:09;;;;;;;4.05;1.33;;;;;14.50;96844.00;;;;5033653;28;20518;-62
2023/10/29 03:05:35;;;;;;;2.00;1.08;;;;;14.50;96844.00;;;;5033458;28;20411;-62
2023/10/29 03:08:21;;;;;;;1.80;1.00;;;;;14.50;96852.00;;;;5033408;28;20045;-62
2023/10/29 03:10:51;;;;;;;1.85;0.95;;;;;14.60;96850.00;;;;5034848;28;20091;-62
2023/10/29 03:13:18;;;;;;;3.05;1.30;;;;;14.60;96856.00;;;;5034829;28;20498;-61
2023/10/29 03:15:45;;;;;;;2.92;1.10;;;;;14.60;96850.00;;;;5032852;28;20103;-66
2023/10/29 03:18:12;;;;;;;4.40;1.10;;;;;14.60;96851.00;;;;5034422;28;20050;-61
2023/10/29 03:20:39;;;;;;;2.15;1.00;;;;;14.60;96860.00;;;;5034538;28;20056;-65
2023/10/29 03:23:06;;;;;;;2.42;1.17;;;;;14.50;96861.00;;;;5033139;28;20136;-62
2023/10/29 03:25:33;;;;;;;3.58;1.10;;;;;14.60;96856.00;;;;5034014;28;20167;-66
2023/10/29 03:27:59;;;;;;;1.48;0.88;;;;;14.60;96859.00;;;;5033025;28;20041;-61
2023/10/29 03:30:26;;;;;;;2.40;0.90;;;;;14.60;96864.00;;;;5034423;28;20526;-61
2023/10/29 03:32:53;;;;;;;3.97;1.35;;;;;14.50;96852.00;;;;5033237;28;20041;-63
2023/10/29 03:35:20;;;;;;;1.88;1.00;;;;;14.50;96841.00;;;;5033699;28;20045;-61
2023/10/29 03:37:46;;;;;;;4.20;1.40;;;;;14.50;96843.00;;;;5034219;28;20056;-62
2023/10/29 03:40:13;;;;;;;1.48;1.00;;;;;14.50;96841.00;;;;5033003;28;20510;-64
2023/10/29 03:42:40;;;;;;;1.48;1.10;;;;;14.50;96843.00;;;;5033018;28;20144;-63
2023/10/29 03:45:07;;;;;;;4.35;1.10;;;;;14.50;96841.00;;;;5032316;28;20564;-63
2023/10/29 03:47:34;;;;;;;2.33;1.15;;;;;14.50;96854.00;;;;5032801;28;20049;-64
2023/10/29 03:50:02;;;;;;;3.17;1.00;;;;;14.50;96845.00;;;;5032806;28;20053;-63
2023/10/29 03:52:28;;;;;;;2.22;0.98;;;;;14.40;96847.00;;;;5032795;28;20124;-62
2023/10/29 03:54:55;;;;;;;4.28;1.10;;;;;14.50;96854.00;;;;5031996;28;20151;-62
2023/10/29 03:57:21;;;;;;;3.40;1.20;;;;;14.40;96856.00;;;;5031848;28;20088;-63
2023/10/29 03:59:48;;;;;;;4.22;1.25;;;;;14.50;96845.00;;;;5032502;28;20494;-64
2023/10/29 04:02:15;;;;;;;1.23;1.10;;;;;14.40;96842.00;;;;5033724;28;20069;-63
2023/10/29 04:04:41;;;;;;;5.30;1.92;;;;;14.40;96853.00;;;;5033346;28;20055;-62
2023/10/29 04:07:16;;;;;;;5.38;1.67;;;;;14.40;96858.00;;;;5033821;28;20048;-66
2023/10/29 04:09:43;;;;;;;2.63;1.17;;;;;14.40;96856.00;;;;5032307;28;20144;-64
2023/10/29 04:12:10;;;;;;;2.72;1.20;;;;;14.40;96873.00;;;;5032342;28;20081;-64
2023/10/29 04:14:39;;;;;;;3.88;1.27;;;;;14.40;96885.00;;;;5032938;28;20087;-63
2023/10/29 04:17:07;;;;;;;1.77;1.20;;;;;14.40;96884.00;;;;5032306;28;20041;-63
2023/10/29 04:19:34;;;;;;;4.82;1.10;;;;;14.40;96895.00;;;;5033482;28;20128;-61
2023/10/29 04:22:01;;;;;;;4.63;1.45;;;;;14.40;96889.00;;;;5033372;28;20052;-64
2023/10/29 04:24:28;;;;;;;2.17;1.20;;;;;14.30;96880.00;;;;5033067;28;20038;-60
2023/10/29 04:26:55;;;;;;;2.00;1.13;;;;;14.30;96888.00;;;;5033453;28;20052;-64
2023/10/29 04:29:21;;;;;;;2.50;1.40;;;;;14.30;96885.00;;;;5031836;28;20439;-63
2023/10/29 04:31:48;;;;;;;3.05;1.42;;;;;14.20;96878.00;;;;5033215;28;20041;-60
2023/10/29 04:34:14;;;;;;;3.38;1.58;;;;;14.20;96880.00;;;;5032675;28;20042;-64
2023/10/29 04:36:42;;;;;;;3.63;1.52;;;;;14.20;96869.00;;;;5031864;28;20069;-61
2023/10/29 04:39:09;;;;;;;3.60;1.38;;;;;14.20;96870.00;;;;5031754;28;20045;-61
2023/10/29 04:41:35;;;;;;;1.80;1.10;;;;;14.20;96873.00;;;;5031860;28;20149;-61
2023/10/29 04:44:02;;;;;;;3.33;1.38;;;;;14.20;96881.00;;;;5032323;28;20493;-61
2023/10/29 04:46:29;;;;;;;2.55;1.30;;;;;14.20;96878.00;;;;5032920;28;20088;-64
2023/10/29 04:48:56;;;;;;;2.15;1.20;;;;;14.20;96880.00;;;;5032787;28;20068;-62
2023/10/29 04:51:23;;;;;;;4.07;1.20;;;;;14.20;96867.00;;;;5031620;28;20041;-61
2023/10/29 04:53:52;;;;;;;2.17;1.10;;;;;14.20;96871.00;;;;5032219;28;20140;-64
2023/10/29 04:56:18;;;;;;;3.45;1.67;;;;;14.20;96877.00;;;;5032739;28;20045;-62
2023/10/29 04:58:45;;;;;;;3.85;1.48;;;;;14.10;96867.00;;;;5032607;28;20383;-61
2023/10/29 05:01:11;;;;;;;2.65;1.50;;;;;14.10;96864.00;;;;5032611;28;20455;-65
2023/10/29 05:03:38;;;;;;;2.83;1.17;;;;;14.10;96871.00;;;;5031910;28;20509;-62
2023/10/29 05:06:05;;;;;;;3.90;1.50;;;;;14.10;96882.00;;;;5032685;28;20473;-62
2023/10/29 05:08:32;;;;;;;1.33;1.20;;;;;14.10;96873.00;;;;5032455;28;20072;-64
2023/10/29 05:10:58;;;;;;;3.05;1.17;;;;;14.10;96888.00;;;;5032735;28;20045;-60
2023/10/29 05:13:25;;;;;;;3.17;1.40;;;;;14.10;96899.00;;;;5032103;28;20044;-62
2023/10/29 05:15:52;;;;;;;4.78;1.23;;;;;14.10;96878.00;;;;5032304;28;20525;-64
2023/10/29 05:18:18;;;;;;;3.67;1.20;;;;;14.00;96881.00;;;;5032368;28;20041;-62
2023/10/29 05:20:45;;;;;;;3.17;1.27;;;;;14.00;96887.00;;;;5032394;28;20099;-62
2023/10/29 05:23:12;;;;;;;4.78;1.77;;;;;14.00;96872.00;;;;5032166;28;20041;-64
2023/10/29 05:25:39;;;;;;;4.18;1.42;;;;;14.00;96865.00;;;;5031778;28;20041;-62
2023/10/29 05:28:06;;;;;;;2.55;1.60;;;;;14.10;96874.00;;;;5030821;28;20584;-61
2023/10/29 05:30:32;;;;;;;4.03;1.30;;;;;14.10;96893.00;;;;5032007;28;20045;-64
2023/10/29 05:32:59;;;;;;;3.55;1.50;;;;;14.00;96905.00;;;;5036012;28;20503;-63
2023/10/29 05:35:26;;;;;;;5.25;2.20;;;;;14.00;96903.00;;;;5036084;28;20487;-62
2023/10/29 05:37:52;;;;;;;2.72;1.33;;;;;14.00;96910.00;;;;5033002;28;20529;-62
2023/10/29 05:40:19;;;;;;;4.07;1.92;;;;;14.00;96900.00;;;;5032546;28;20083;-64
2023/10/29 05:42:45;;;;;;;4.07;1.58;;;;;14.10;96895.00;;;;5032437;28;20068;-62
2023/10/29 05:45:12;;;;;;;2.72;1.70;;;;;14.10;96905.00;;;;5031597;28;20044;-62
2023/10/29 05:47:38;;;;;;;5.78;2.58;;;;;14.10;96914.00;;;;5032205;28;20041;-61
2023/10/29 05:50:06;;;;;;;3.33;1.55;;;;;14.10;96918.00;;;;5032129;28;20049;-61
2023/10/29 05:52:33;;;;;;;2.55;1.30;;;;;14.10;96927.00;;;;5030925;28;20140;-62
2023/10/29 05:55:03;;;;;;;1.95;1.27;;;;;14.10;96914.00;;;;5030245;28;20473;-64
2023/10/29 05:57:30;;;;;;;2.28;1.60;;;;;14.10;96927.00;;;;5032126;28;20457;-63
2023/10/29 05:59:56;;;;;;;3.15;1.67;;;;;14.10;96937.00;;;;5031841;28;20494;-61
2023/10/29 06:02:23;;;;;;;7.53;1.73;;;;;14.10;96945.00;;;;5031904;28;20716;-61
2023/10/29 06:04:50;;;;;;;4.53;1.70;;;;;14.10;96937.00;;;;5031230;28;20080;-63
2023/10/29 06:07:17;;;;;;;2.35;1.60;;;;;14.10;96953.00;;;;5031773;28;20050;-62
2023/10/29 06:09:43;;;;;;;8.68;2.72;;;;;14.10;96951.00;;;;5030610;28;20056;-61
2023/10/29 06:12:10;;;;;;;5.30;2.25;;;;;14.10;96963.00;;;;5032066;28;20049;-63
2023/10/29 06:14:36;;;;;;;3.15;1.90;;;;;14.10;96965.00;;;;5031354;28;20045;-65
2023/10/29 06:17:03;;;;;;;3.08;1.77;;;;;14.10;96953.00;;;;5031695;28;20121;-64
2023/10/29 06:19:48;;;;;;;3.90;1.50;;;;;14.00;96956.00;;;;5031727;28;20115;-65
2023/10/29 06:22:15;;;;;;;4.10;1.33;;;;;14.00;96932.00;;;;5034488;28;20042;-65
2023/10/29 06:24:42;;;;;;;2.05;1.40;;;;;13.90;96924.00;;;;5035298;28;20445;-65
2023/10/29 06:27:08;;;;;;;4.88;2.00;;;;;14.00;96927.00;;;;5035770;28;20050;-64
2023/10/29 06:29:38;;;;;;;4.65;1.58;;;;;14.00;96922.00;;;;5036174;28;20041;-64
2023/10/29 06:32:05;;;;;;;3.22;2.08;;;;;14.00;96916.00;;;;5035635;28;20099;-65
2023/10/29 06:34:31;;;;;;;3.25;1.30;;;;;14.10;96915.00;;;;5034879;28;20132;-65
2023/10/29 06:36:58;;;;;;;2.63;1.52;;;;;14.10;96897.00;;;;5035546;28;20047;-66
2023/10/29 06:39:24;;;;;;;3.33;1.58;;;;;14.20;96892.00;;;;5035405;28;20073;-63
2023/10/29 06:41:52;;;;;;;4.13;1.45;;;;;14.10;96891.00;;;;5035359;28;20073;-62
2023/10/29 06:44:18;;;;;;;2.13;1.60;;;;;14.20;96903.00;;;;5034626;28;20064;-66
2023/10/29 06:46:45;;;;;;;6.53;1.73;;;;;14.20;96907.00;;;;5035264;28;20171;-61
2023/10/29 06:49:12;;;;;;;5.05;1.58;;;;;14.20;96915.00;;;;5035159;28;20415;-62
2023/10/29 06:51:39;;;;;;;3.97;1.70;;;;;14.20;96926.00;;;;5033957;28;20437;-65
2023/10/29 06:54:05;;;;;;;2.92;1.70;;;;;14.20;96919.00;;;;5034556;28;20037;-62
2023/10/29 06:56:32;;;;;;;5.75;1.60;;;;;14.20;96921.00;;;;5035107;28;20087;-61
2023/10/29 06:58:59;;;;;;;2.03;1.30;;;;;14.20;96927.00;;;;5034999;28;20064;-62
2023/10/29 07:01:25;;;;;;;3.42;1.90;;;;;14.30;96925.00;;;;5035037;28;20048;-63
2023/10/29 07:03:52;;;;;;;3.03;1.38;;;;;14.30;96934.00;;;;5034130;28;20069;-63
2023/10/29 07:06:18;;;;;;;2.60;1.42;;;;;14.40;96936.00;;;;5034880;28;20053;-61
2023/10/29 07:08:47;;;;;;;2.50;1.70;;;;;14.40;96936.00;;;;5034775;28;20410;-63
2023/10/29 07:11:14;;;;;;;2.03;1.58;;;;;14.40;96939.00;;;;5033811;28;20416;-64
2023/10/29 07:13:41;;;;;;;1.67;1.20;;;;;14.40;96943.00;;;;5034268;28;20042;-64
2023/10/29 07:16:09;;;;;;;4.57;1.83;;;;;14.30;96945.00;;;;5034754;28;20091;-65
2023/10/29 07:18:36;;;;;;;2.17;1.23;;;;;14.40;96940.00;;;;5034496;28;20490;-64
2023/10/29 07:21:03;;;;;;;3.30;1.27;;;;;14.40;96928.00;;;;5034798;28;20112;-65
2023/10/29 07:23:30;;;;;;;1.95;1.55;;;;;14.40;96911.00;;;;5033940;28;20037;-64
2023/10/29 07:25:56;;;;;;;2.42;1.40;;;;;14.40;96892.00;;;;5033288;28;20072;-65
2023/10/29 07:28:23;;;;;;;4.65;1.92;;;;;14.40;96877.00;;;;5034400;28;20046;-65
2023/10/29 07:30:50;;;;;;;1.23;1.00;;;;;14.50;96875.00;;;;5034362;28;20506;-65
2023/10/29 07:33:16;;;;;;;4.53;1.77;;;;;14.50;96875.00;;;;5033192;28;20554;-65
2023/10/29 07:35:43;;;;;;;2.03;1.20;;;;;14.50;96876.00;;;;5033847;28;20045;-65
2023/10/29 07:38:10;;;;;;;2.30;1.33;;;;;14.50;96874.00;;;;5034395;28;20045;-65
2023/10/29 07:40:36;;;;;;;3.25;1.42;;;;;14.50;96873.00;;;;5034390;28;20038;-64
2023/10/29 07:43:03;;;;;;;2.42;1.27;;;;;14.60;96876.00;;;;5034395;28;20076;-65
2023/10/29 07:45:33;;;;;;;2.75;1.48;;;;;14.60;96873.00;;;;5033723;28;20500;-65
2023/10/29 07:48:00;;;;;;;2.33;1.30;;;;;14.60;96876.00;;;;5034078;28;20582;-64
2023/10/29 07:50:27;;;;;;;1.90;1.45;;;;;14.60;96872.00;;;;5034112;28;20045;-65
2023/10/29 07:52:55;;;;;;;2.90;1.40;;;;;14.70;96864.00;;;;5034136;28;20037;-64
2023/10/29 07:55:21;;;;;;;3.67;1.58;;;;;14.70;96875.00;;;;5033491;28;20044;-65
2023/10/29 07:57:48;;;;;;;3.78;1.40;;;;;14.70;96882.00;;;;5032884;28;20048;-67
2023/10/29 08:00:15;;;;;;;8.98;1.42;;;;;14.70;96900.00;;;;5034149;28;20505;-64
2023/10/29 08:02:42;;;;;;;3.40;1.38;;;;;14.70;96890.00;;;;5033886;28;20111;-65
2023/10/29 08:05:10;;;;;;;2.17;1.20;;;;;14.70;96893.00;;;;5033165;28;20049;-64
2023/10/29 08:07:38;;;;;;;2.30;1.13;;;;;14.80;96865.00;;;;5032420;28;20045;-65
2023/10/29 08:10:06;;;;;;;2.72;1.08;;;;;14.80;96870.00;;;;5033712;28;20053;-64
2023/10/29 08:12:34;;;;;;;3.85;1.45;;;;;14.90;96887.00;;;;5033851;28;20060;-65
2023/10/29 08:15:02;;;;;;;2.13;1.20;;;;;14.90;96901.00;;;;5032985;28;20556;-65
2023/10/29 08:17:29;;;;;;;4.40;1.10;;;;;14.90;96893.00;;;;5033664;28;20542;-65
2023/10/29 08:19:56;;;;;;;1.95;1.45;;;;;15.00;96892.00;;;;5033248;28;20049;-64
2023/10/29 08:22:22;;;;;;;2.22;1.55;;;;;15.00;96885.00;;;;5032233;28;20041;-65
2023/10/29 08:24:50;;;;;;;2.92;1.10;;;;;15.10;96893.00;;;;5032672;28;20128;-66
2023/10/29 08:27:17;;;;;;;3.42;1.17;;;;;15.10;96894.00;;;;5033668;28;20076;-65
2023/10/29 08:29:45;;;;;;;4.40;1.40;;;;;15.20;96897.00;;;;5033416;28;20041;-64
2023/10/29 08:32:12;;;;;;;2.22;1.40;;;;;15.20;96891.00;;;;5033410;28;20049;-65
2023/10/29 08:34:39;;;;;;;2.20;1.27;;;;;15.20;96895.00;;;;5032901;28;20053;-64
2023/10/29 08:37:06;;;;;;;1.33;1.17;;;;;15.30;96901.00;;;;5033592;28;20578;-63
2023/10/29 08:39:32;;;;;;;2.10;1.17;;;;;15.30;96908.00;;;;5033277;28;20095;-65
2023/10/29 08:42:02;;;;;;;2.05;1.10;;;;;15.30;96914.00;;;;5033641;28;20106;-65
2023/10/29 08:44:29;;;;;;;3.33;1.30;;;;;15.30;96903.00;;;;5038878;28;20041;-64
2023/10/29 08:46:56;;;;;;;3.25;1.00;;;;;15.20;96899.00;;;;5042081;28;20052;-65
2023/10/29 08:49:23;;;;;;;1.15;1.00;;;;;15.10;96906.00;;;;5042161;28;20045;-64
2023/10/29 08:51:50;;;;;;;3.53;1.20;;;;;15.10;96906.00;;;;5042082;28;20056;-65
2023/10/29 08:54:17;;;;;;;3.90;1.30;;;;;15.20;96911.00;;;;5042169;28;20041;-64
2023/10/29 08:56:43;;;;;;;2.55;1.08;;;;;15.20;96917.00;;;;5046430;28;20053;-64
2023/10/29 08:59:13;;;;;;;1.83;1.40;;;;;15.20;96921.00;;;;5045492;28;20045;-63
2023/10/29 09:01:43;;;;;;;3.83;1.42;;;;;15.20;96939.00;;;;5045210;28;20132;-64
2023/10/29 09:04:10;;;;;;;2.42;0.90;;;;;15.20;96946.00;;;;5040543;28;20037;-65
2023/10/29 09:06:37;;;;;;;2.75;1.25;;;;;15.10;96953.00;;;;5033680;28;20046;-63
2023/10/29 09:09:04;;;;;;;3.28;1.70;;;;;15.00;96971.00;;;;5033116;28;20057;-64
2023/10/29 09:11:31;;;;;;;3.45;1.67;;;;;15.00;96975.00;;;;5033098;28;20050;-64
2023/10/29 09:13:58;;;;;;;4.32;1.73;;;;;15.00;96991.00;;;;5032233;28;20045;-65
2023/10/29 09:16:25;;;;;;;3.85;1.35;;;;;14.90;96991.00;;;;5033461;28;20467;-66
2023/10/29 09:18:52;;;;;;;1.67;1.20;;;;;15.00;96978.00;;;;5032600;28;20042;-65
2023/10/29 09:21:18;;;;;;;4.28;1.50;;;;;15.00;96961.00;;;;5032676;28;20051;-65
2023/10/29 09:23:45;;;;;;;1.92;1.10;;;;;15.00;96963.00;;;;5031921;28;20491;-62
2023/10/29 09:26:11;;;;;;;3.13;1.17;;;;;15.10;96975.00;;;;5032877;28;20048;-64
2023/10/29 09:28:40;;;;;;;4.15;1.30;;;;;15.20;96979.00;;;;5032546;28;20072;-64
2023/10/29 09:31:08;;;;;;;1.83;1.10;;;;;15.20;96974.00;;;;5032395;28;20124;-64
2023/10/29 09:33:35;;;;;;;4.15;1.27;;;;;15.20;96966.00;;;;5035266;28;20045;-64
2023/10/29 09:36:03;;;;;;;2.38;1.23;;;;;15.20;96957.00;;;;5044963;28;20057;-62
2023/10/29 09:38:29;;;;;;;4.68;1.80;;;;;15.30;96948.00;;;;5044429;28;20073;-64
2023/10/29 09:40:56;;;;;;;1.92;1.45;;;;;15.30;96962.00;;;;5034818;28;20116;-63
2023/10/29 09:43:26;;;;;;;1.60;1.23;;;;;15.30;96967.00;;;;5033984;28;20116;-64
2023/10/29 09:45:54;;;;;;;2.40;1.58;;;;;15.30;96967.00;;;;5033225;28;20067;-65
2023/10/29 09:48:21;;;;;;;3.47;2.30;;;;;15.30;96977.00;;;;5032863;28;20045;-64
2023/10/29 09:50:48;;;;;;;2.03;1.52;;;;;15.20;96978.00;;;;5032522;28;20537;-64
2023/10/29 09:53:15;;;;;;;1.75;1.00;;;;;15.20;96978.00;;;;5032218;28;20409;-64
2023/10/29 09:55:42;;;;;;;1.83;1.10;;;;;15.20;96975.00;;;;5030803;28;20091;-64
2023/10/29 09:58:09;;;;;;;1.90;1.10;;;;;15.10;96978.00;;;;5032141;28;20119;-65
2023/10/29 10:00:36;;;;;;;2.78;1.20;;;;;15.10;96983.00;;;;5032017;28;20076;-65
2023/10/29 10:03:03;;;;;;;3.38;1.35;;;;;15.10;96982.00;;;;5031967;28;20057;-65
2023/10/29 10:05:30;;;;;;;3.53;3.22;;;;;15.10;96979.00;;;;5030127;28;20064;-63
2023/10/29 10:07:57;;;;;;;3.60;1.98;;;;;15.10;96965.00;;;;5031995;28;20037;-65
2023/10/29 10:10:41;;;;;;;1.35;1.10;;;;;15.20;96959.00;;;;5032009;28;20045;-65
2023/10/29 10:13:08;;;;;;;1.70;1.10;;;;;15.10;96978.00;;;;5014285;28;20479;-65
2023/10/29 10:15:37;;;;;;;2.85;1.30;;;;;15.00;97002.00;;;;5031259;28;20124;-64
2023/10/29 10:18:05;;;;;;;2.55;1.40;;;;;14.90;96991.00;;;;5031672;28;20076;-64
2023/10/29 10:20:33;;;;;;;1.77;1.17;;;;;14.80;96999.00;;;;5031862;28;20509;-64
2023/10/29 10:23:09;;;;;;;2.15;1.40;;;;;14.80;96996.00;;;;5031723;28;20041;-63
2023/10/29 10:25:35;;;;;;;1.83;0.90;;;;;14.80;96983.00;;;;5031095;28;20075;-63
2023/10/29 10:28:03;;;;;;;2.35;1.38;;;;;14.90;96986.00;;;;5031611;28;20045;-62
2023/10/29 10:30:35;;;;;;;3.63;2.30;;;;;15.00;96989.00;;;;5031692;28;20120;-63
2023/10/29 10:33:09;;;;;;;4.40;3.10;;;;;15.00;96981.00;;;;5032192;28;20045;-63
2023/10/29 10:35:39;;;;;;;;;;;;;15.10;96990.00;;;;5031646;28;20100;-64
2023/10/29 10:38:06;;;;;;;3.45;2.00;;;;;15.00;96978.00;;;;5031573;28;19975;-64
2023/10/29 10:40:33;;;;;;;3.13;2.78;;;;;15.00;96986.00;;;;5032130;28;20052;-64
2023/10/29 10:43:01;;;;;;;1.13;1.08;;;;;15.00;96976.00;;;;5031655;28;20045;-65
2023/10/29 10:45:30;;;;;;;2.83;2.08;;;;;15.00;96981.00;;;;5030922;28;20050;-62
2023/10/29 10:48:01;;;;;;;5.78;3.83;;;;;15.00;96971.00;;;;5031800;28;20117;-61
2023/10/29 10:50:27;;;;;;;3.95;3.15;;;;;15.00;96961.00;;;;5031590;28;20041;-63
2023/10/29 10:52:57;;;;;;;3.95;3.00;;;;;15.10;96962.00;;;;5031523;28;20049;-63
2023/10/29 10:55:27;;;;;;;1.42;1.20;;;;;15.10;96971.00;;;;5031009;28;20041;-62
2023/10/29 10:58:17;;;;;;;2.58;1.80;;;;;15.10;96990.00;;;;5031384;28;20054;-64
2023/10/29 11:00:44;;;;;;;2.58;1.70;;;;;15.10;96977.00;;;;5030357;28;20046;-62
2023/10/29 11:03:11;;;;;;;1.90;1.50;;;;;15.10;96991.00;;;;5031394;28;20049;-62
2023/10/29 11:05:58;;;;;;;1.85;1.25;;;;;15.10;96975.00;;;;5030672;28;20053;-62
2023/10/29 11:08:26;;;;;;;1.63;1.15;;;;;15.20;96982.00;;;;5035076;28;20045;-62
2023/10/29 11:10:57;;;;;;;2.22;1.60;;;;;15.20;96990.00;;;;5034933;28;20099;-62
2023/10/29 11:13:24;;;;;;;5.05;2.35;;;;;15.20;96984.00;;;;5033517;28;20038;-63
2023/10/29 11:15:50;;;;;;;3.92;2.05;;;;;15.20;96984.00;;;;5034342;28;20069;-65
2023/10/29 11:18:28;;;;;;;6.63;2.83;;;;;15.10;96975.00;;;;5034680;28;20041;-62
2023/10/29 11:20:56;;;;;;;2.53;1.85;;;;;15.10;96972.00;;;;5034888;28;20049;-61
2023/10/29 11:23:27;;;;;;;2.97;1.67;;;;;15.10;96968.00;;;;5034832;28;20119;-67
2023/10/29 11:26:16;;;;;;;1.52;1.13;;;;;15.10;96965.00;;;;5042678;28;20116;-62
2023/10/29 11:28:44;;;;;;;2.78;2.10;;;;;15.00;96957.00;;;;5044967;28;20132;-61
2023/10/29 11:31:28;;;;;;;1.77;1.40;;;;;15.10;96965.00;;;;5045763;28;20054;-61
2023/10/29 11:33:55;;;;;;;2.35;1.27;;;;;15.20;96951.00;;;;5044981;28;20065;-62
2023/10/29 11:36:39;;;;;;;1.02;0.95;;;;;15.20;96959.00;;;;5042238;28;20045;-62
2023/10/29 11:39:15;;;;;;;;;;;;;15.20;96947.00;;;;5043685;28;20056;-62
2023/10/29 11:41:43;;;;;;;36.30;23.83;;;;;15.00;96946.00;;;;5044255;28;20393;-61
2023/10/29 11:44:17;;;;;;;7.70;4.47;;;;;15.00;96929.00;;;;5042886;28;20139;-64
2023/10/29 11:46:56;;;;;;;4.22;3.15;;;;;15.00;96939.00;;;;5039876;28;20056;-62
2023/10/29 11:49:23;;;;;;;3.47;2.42;;;;;15.00;96944.00;;;;5034348;28;20449;-61
2023/10/29 11:51:57;;;;;;;41.35;35.47;;;;;15.10;96939.00;;;;5034273;28;20033;-60
2023/10/29 11:54:24;;;;;;;246.95;147.95;;;;;15.10;96945.00;;;;5033782;28;20049;-62
2023/10/29 11:56:52;;;;;;;53.78;29.30;;;;;15.00;96943.00;;;;5032962;28;20053;-60
2023/10/29 11:59:18;;;;;;;85.15;47.17;;;;;14.90;96934.00;;;;5034252;28;20094;-61
2023/10/29 12:01:45;;;;;;;502.15;270.63;;;;;14.90;96938.00;;;;5033919;28;20048;-62
2023/10/29 12:04:12;;;;;;;63.53;30.35;;;;;14.90;96930.00;;;;5033188;28;20042;-65
2023/10/29 12:06:40;;;;;;;646.72;333.30;;;;;15.00;96927.00;;;;5033744;28;20041;-62
2023/10/29 12:09:21;;;;;;;272.02;121.13;;;;;15.10;96930.00;;;;5033911;28;20057;-62
2023/10/29 12:11:52;;;;;;;952.13;521.00;;;;;15.00;96925.00;;;;5033733;28;20041;-64
2023/10/29 12:14:49;;;;;;;348.92;162.13;;;;;15.20;96925.00;;;;5033176;28;20041;-62
2023/10/29 12:17:16;;;;;;;543.03;274.88;;;;;15.20;96934.00;;;;5033706;28;20045;-65
2023/10/29 12:19:47;;;;;;;223.82;108.68;;;;;15.20;96932.00;;;;5033057;28;20065;-63